createdAt,value
2024-01-19T00:00:06.682Z,30.27
2024-01-19T00:02:34.041Z,31.60
2024-01-19T00:05:02.049Z,31.80
2024-01-19T00:07:29.509Z,30.00
2024-01-19T00:09:57.212Z,29.17
2024-01-19T00:12:24.660Z,33.70
2024-01-19T00:14:52.120Z,34.27
2024-01-19T00:17:19.585Z,28.93
2024-01-19T00:19:47.022Z,34.17
2024-01-19T00:22:14.461Z,31.30
2024-01-19T00:24:41.894Z,36.47
2024-01-19T00:27:09.277Z,30.53
2024-01-19T00:29:36.717Z,28.53
2024-01-19T00:32:04.284Z,28.27
2024-01-19T00:34:31.731Z,29.13
2024-01-19T00:36:59.077Z,25.23
2024-01-19T00:39:26.512Z,27.43
2024-01-19T00:41:54.049Z,29.67
2024-01-19T00:44:22.858Z,36.30
2024-01-19T00:46:51.220Z,31.17
2024-01-19T00:49:19.411Z,29.93
2024-01-19T00:51:46.957Z,29.23
2024-01-19T00:54:15.642Z,29.83
2024-01-19T00:56:43.134Z,26.77
2024-01-19T00:59:10.734Z,23.63
2024-01-19T01:01:38.202Z,27.83
2024-01-19T01:04:07.192Z,21.90
2024-01-19T01:06:34.713Z,30.77
2024-01-19T01:09:02.314Z,22.40
2024-01-19T01:11:29.973Z,22.73
2024-01-19T01:13:57.581Z,23.77
2024-01-19T01:16:25.157Z,17.83
2024-01-19T01:18:52.584Z,23.27
2024-01-19T01:21:19.971Z,33.90
2024-01-19T01:23:48.595Z,21.20
2024-01-19T01:26:16.100Z,29.50
2024-01-19T01:28:43.511Z,20.60
2024-01-19T01:31:11.370Z,22.97
2024-01-19T01:33:38.971Z,17.93
2024-01-19T01:36:06.980Z,27.13
2024-01-19T01:38:34.675Z,21.57
2024-01-19T01:41:02.191Z,20.17
2024-01-19T01:43:29.892Z,19.33
2024-01-19T01:45:57.351Z,23.13
2024-01-19T01:48:27.739Z,15.80
2024-01-19T01:50:57.399Z,27.07
2024-01-19T01:53:25.813Z,23.30
2024-01-19T01:55:54.110Z,23.30
2024-01-19T01:58:22.650Z,19.63
2024-01-19T02:00:51.412Z,19.53
2024-01-19T02:03:19.101Z,24.60
2024-01-19T02:05:46.975Z,18.13
2024-01-19T02:08:14.797Z,16.80
2024-01-19T02:10:42.433Z,21.87
2024-01-19T02:13:09.991Z,22.13
2024-01-19T02:15:39.202Z,21.40
2024-01-19T02:18:07.282Z,21.47
2024-01-19T02:20:34.916Z,24.17
2024-01-19T02:23:06.235Z,21.03
2024-01-19T02:25:33.780Z,21.67
2024-01-19T02:28:01.677Z,16.10
2024-01-19T02:30:29.581Z,22.43
2024-01-19T02:32:57.472Z,19.00
2024-01-19T02:35:25.204Z,21.17
2024-01-19T02:37:53.206Z,21.87
2024-01-19T02:40:20.614Z,22.43
2024-01-19T02:42:48.021Z,18.77
2024-01-19T02:45:15.813Z,20.10
2024-01-19T02:47:43.273Z,23.97
2024-01-19T02:50:11.245Z,19.63
2024-01-19T02:52:38.826Z,23.70
2024-01-19T02:55:07.497Z,21.40
2024-01-19T02:57:34.951Z,17.90
2024-01-19T03:00:02.420Z,22.00
2024-01-19T03:02:29.860Z,20.50
2024-01-19T03:04:57.427Z,22.33
2024-01-19T03:07:24.806Z,22.00
2024-01-19T03:09:52.156Z,25.40
2024-01-19T03:12:20.004Z,19.97
2024-01-19T03:14:47.440Z,21.97
2024-01-19T03:17:15.390Z,20.63
2024-01-19T03:19:42.782Z,22.63
2024-01-19T03:22:10.328Z,26.30
2024-01-19T03:24:37.739Z,24.57
2024-01-19T03:27:05.461Z,19.20
2024-01-19T03:29:32.842Z,21.47
2024-01-19T03:32:00.227Z,24.50
2024-01-19T03:34:27.652Z,24.50
2024-01-19T03:36:55.111Z,17.60
2024-01-19T03:39:24.676Z,16.30
2024-01-19T03:41:54.687Z,17.40
2024-01-19T03:44:22.103Z,17.13
2024-01-19T03:46:49.446Z,17.80
2024-01-19T03:49:16.908Z,17.63
2024-01-19T03:52:08.036Z,16.43
2024-01-19T03:54:38.021Z,15.40
2024-01-19T03:57:09.279Z,14.07
2024-01-19T03:59:36.611Z,17.03
2024-01-19T04:02:06.232Z,13.10
2024-01-19T04:04:34.229Z,20.13
2024-01-19T04:07:01.884Z,13.67
2024-01-19T04:09:29.384Z,17.40
2024-01-19T04:11:57.404Z,12.03
2024-01-19T04:14:25.087Z,14.77
2024-01-19T04:16:52.511Z,11.13
2024-01-19T04:19:20.036Z,17.23
2024-01-19T04:21:47.524Z,13.40
2024-01-19T04:24:15.415Z,12.70
2024-01-19T04:26:42.844Z,7.90
2024-01-19T04:29:11.354Z,19.30
2024-01-19T04:31:38.877Z,12.57
2024-01-19T04:34:06.493Z,15.53
2024-01-19T04:36:33.956Z,12.93
2024-01-19T04:39:01.438Z,11.37
2024-01-19T04:41:28.894Z,17.70
2024-01-19T04:43:56.700Z,13.43
2024-01-19T04:46:24.161Z,10.53
2024-01-19T04:48:51.589Z,14.73
2024-01-19T04:51:18.956Z,9.03
2024-01-19T04:53:46.403Z,11.67
2024-01-19T04:56:13.894Z,13.07
2024-01-19T04:58:41.873Z,11.63
2024-01-19T05:01:09.906Z,9.13
2024-01-19T05:03:37.628Z,15.50
2024-01-19T05:06:05.488Z,11.33
2024-01-19T05:08:32.973Z,10.57
2024-01-19T05:11:00.323Z,12.97
2024-01-19T05:13:27.745Z,9.10
2024-01-19T05:15:55.117Z,13.73
2024-01-19T05:18:22.833Z,13.03
2024-01-19T05:20:50.998Z,9.10
2024-01-19T05:23:18.511Z,13.47
2024-01-19T05:25:46.154Z,13.50
2024-01-19T05:28:13.510Z,7.40
2024-01-19T05:30:40.917Z,9.20
2024-01-19T05:33:08.378Z,14.23
2024-01-19T05:35:36.017Z,16.47
2024-01-19T05:38:04.468Z,12.00
2024-01-19T05:40:31.850Z,12.07
2024-01-19T05:42:59.243Z,10.53
2024-01-19T05:45:26.828Z,11.60
2024-01-19T05:47:54.926Z,9.87
2024-01-19T05:50:22.385Z,8.67
2024-01-19T05:52:49.863Z,10.10
2024-01-19T05:55:17.315Z,8.10
2024-01-19T05:57:44.720Z,7.03
2024-01-19T06:00:15.974Z,7.63
2024-01-19T06:02:43.502Z,10.00
2024-01-19T06:05:10.960Z,12.23
2024-01-19T06:07:38.397Z,10.53
2024-01-19T06:10:07.776Z,14.83
2024-01-19T06:12:35.202Z,13.93
2024-01-19T06:15:02.742Z,14.77
2024-01-19T06:17:30.324Z,9.23
2024-01-19T06:19:57.870Z,10.77
2024-01-19T06:22:25.633Z,16.67
2024-01-19T06:24:53.089Z,10.70
2024-01-19T06:27:23.718Z,13.37
2024-01-19T06:29:52.643Z,10.77
2024-01-19T06:32:20.723Z,5.23
2024-01-19T06:34:48.282Z,8.47
2024-01-19T06:37:15.825Z,5.93
2024-01-19T06:39:47.315Z,7.60
2024-01-19T06:42:15.637Z,11.80
2024-01-19T06:44:44.786Z,5.63
2024-01-19T06:47:12.650Z,4.03
2024-01-19T06:49:40.735Z,8.13
2024-01-19T06:52:08.554Z,11.47
2024-01-19T06:54:35.908Z,8.97
2024-01-19T06:57:03.669Z,19.00
2024-01-19T06:59:31.096Z,13.53
2024-01-19T07:01:58.524Z,11.10
2024-01-19T07:04:25.880Z,10.73
2024-01-19T07:06:53.340Z,11.83
2024-01-19T07:09:21.431Z,12.47
2024-01-19T07:11:49.153Z,9.03
2024-01-19T07:14:16.612Z,8.30
2024-01-19T07:16:45.119Z,8.30
2024-01-19T07:19:13.012Z,7.43
2024-01-19T07:21:41.931Z,13.33
2024-01-19T07:24:13.503Z,9.67
2024-01-19T07:26:42.707Z,13.40
2024-01-19T07:29:10.771Z,12.73
2024-01-19T07:31:38.953Z,6.60
2024-01-19T07:34:06.723Z,8.43
2024-01-19T07:36:34.364Z,8.37
2024-01-19T07:39:01.924Z,9.30
2024-01-19T07:41:29.360Z,9.87
2024-01-19T07:43:57.067Z,8.10
2024-01-19T07:46:24.582Z,3.80
2024-01-19T07:48:52.252Z,9.23
2024-01-19T07:51:21.382Z,6.43
2024-01-19T07:53:48.963Z,10.47
2024-01-19T07:56:16.392Z,13.30
2024-01-19T07:58:46.835Z,10.87
2024-01-19T08:01:14.391Z,8.00
2024-01-19T08:03:42.378Z,9.33
2024-01-19T08:06:09.999Z,8.87
2024-01-19T08:08:37.518Z,8.57
2024-01-19T08:11:05.484Z,11.13
2024-01-19T08:13:32.899Z,6.63
2024-01-19T08:16:00.400Z,7.67
2024-01-19T08:18:28.037Z,10.03
2024-01-19T08:20:55.855Z,6.03
2024-01-19T08:23:23.344Z,16.73
2024-01-19T08:25:50.829Z,7.53
2024-01-19T08:28:18.238Z,10.03
2024-01-19T08:30:45.766Z,10.80
2024-01-19T08:33:14.524Z,10.43
2024-01-19T08:35:42.058Z,9.53
2024-01-19T08:38:10.541Z,7.47
2024-01-19T08:40:40.248Z,10.00
2024-01-19T08:43:07.634Z,7.60
2024-01-19T08:45:35.210Z,8.90
2024-01-19T08:48:04.304Z,12.67
2024-01-19T08:50:31.834Z,8.80
2024-01-19T08:53:00.804Z,12.80
2024-01-19T08:55:28.231Z,10.77
2024-01-19T08:57:55.617Z,7.47
2024-01-19T09:00:23.697Z,7.43
2024-01-19T09:02:59.839Z,10.10
2024-01-19T09:05:31.835Z,9.00
2024-01-19T09:07:59.604Z,13.40
2024-01-19T09:10:27.258Z,9.13
2024-01-19T09:12:55.099Z,12.47
2024-01-19T09:15:23.014Z,6.70
2024-01-19T09:17:50.508Z,18.23
2024-01-19T09:20:18.058Z,7.70
2024-01-19T09:22:45.449Z,7.60
2024-01-19T09:25:16.344Z,6.97
2024-01-19T09:27:43.872Z,8.47
2024-01-19T09:30:11.856Z,9.77
2024-01-19T09:32:42.529Z,10.47
2024-01-19T09:35:10.443Z,7.23
2024-01-19T09:37:37.918Z,13.40
2024-01-19T09:40:06.034Z,9.90
2024-01-19T09:42:36.009Z,9.63
2024-01-19T09:45:06.807Z,12.50
2024-01-19T09:48:25.070Z,8.10
2024-01-19T09:50:54.804Z,9.57
2024-01-19T09:53:36.427Z,10.03
2024-01-19T09:56:04.116Z,9.00
2024-01-19T09:58:32.365Z,7.13
2024-01-19T10:01:01.652Z,11.37
2024-01-19T10:03:31.024Z,9.60
2024-01-19T10:05:58.821Z,9.20
2024-01-19T10:08:27.157Z,14.50
2024-01-19T10:10:56.779Z,10.77
2024-01-19T10:13:24.136Z,9.80
2024-01-19T10:15:51.644Z,12.97
2024-01-19T10:18:20.832Z,12.17
2024-01-19T10:20:53.403Z,7.67
2024-01-19T10:23:24.938Z,9.03
2024-01-19T10:25:53.020Z,8.03
2024-01-19T10:28:36.739Z,12.07
2024-01-19T10:31:20.194Z,7.77
2024-01-19T10:33:59.597Z,8.63
2024-01-19T10:36:28.323Z,11.57
2024-01-19T10:39:15.942Z,9.30
2024-01-19T10:41:43.558Z,6.87
2024-01-19T10:44:18.477Z,8.57
2024-01-19T10:46:46.512Z,9.43
2024-01-19T10:49:20.515Z,6.60
2024-01-19T10:51:49.080Z,9.97
2024-01-19T10:54:26.264Z,9.57
2024-01-19T10:57:10.945Z,10.40
2024-01-19T10:59:38.566Z,10.93
2024-01-19T11:02:06.397Z,5.83
2024-01-19T11:04:40.965Z,7.57
2024-01-19T11:07:09.143Z,7.17
2024-01-19T11:09:36.818Z,8.20
2024-01-19T11:12:06.157Z,7.57
2024-01-19T11:14:36.827Z,7.87
2024-01-19T11:17:04.531Z,10.53
2024-01-19T11:19:32.881Z,7.73
2024-01-19T11:22:02.351Z,11.77
2024-01-19T11:24:38.067Z,8.33
2024-01-19T11:27:25.074Z,6.93
2024-01-19T11:29:56.646Z,11.57
2024-01-19T11:32:24.183Z,6.27
2024-01-19T11:34:52.323Z,10.67
2024-01-19T11:37:48.607Z,9.13
2024-01-19T11:40:25.939Z,8.07
2024-01-19T11:42:54.011Z,7.67
2024-01-19T11:45:30.022Z,9.77
2024-01-19T11:47:58.374Z,9.27
2024-01-19T11:50:48.669Z,10.27
2024-01-19T11:53:16.600Z,11.77
2024-01-19T11:55:47.512Z,8.40
2024-01-19T11:58:41.131Z,12.33
2024-01-19T12:01:12.067Z,9.93
2024-01-19T12:03:41.731Z,7.73
2024-01-19T12:06:10.562Z,8.20
2024-01-19T12:08:38.231Z,8.93
2024-01-19T12:11:12.554Z,10.53
2024-01-19T12:13:48.992Z,6.40
2024-01-19T12:16:24.362Z,9.23
2024-01-19T12:18:56.085Z,7.17
2024-01-19T12:21:24.548Z,8.67
2024-01-19T12:23:58.307Z,10.27
2024-01-19T12:26:27.654Z,13.50
2024-01-19T12:28:57.203Z,7.03
2024-01-19T12:31:38.673Z,6.23
2024-01-19T12:34:17.293Z,10.43
2024-01-19T12:36:44.858Z,14.47
2024-01-19T12:39:16.320Z,10.33
2024-01-19T12:41:44.718Z,13.40
2024-01-19T12:44:13.600Z,9.07
2024-01-19T12:46:50.833Z,12.73
2024-01-19T12:49:18.349Z,11.20
2024-01-19T12:51:46.734Z,12.50
2024-01-19T12:54:16.644Z,11.03
2024-01-19T12:56:44.080Z,6.00
2024-01-19T12:59:20.688Z,6.63
2024-01-19T13:01:55.672Z,4.17
2024-01-19T13:04:24.499Z,8.23
2024-01-19T13:06:54.517Z,8.80
2024-01-19T13:09:23.332Z,11.53
2024-01-19T13:11:50.876Z,9.03
2024-01-19T13:14:25.970Z,8.57
2024-01-19T13:16:57.490Z,8.33
2024-01-19T13:19:25.583Z,15.57
2024-01-19T13:21:56.104Z,4.90
2024-01-19T13:24:29.798Z,9.70
2024-01-19T13:27:04.335Z,11.20
2024-01-19T13:29:33.356Z,9.83
2024-01-19T13:32:01.560Z,11.03
2024-01-19T13:34:32.136Z,11.30
2024-01-19T13:37:00.611Z,8.70
2024-01-19T13:39:29.725Z,7.93
2024-01-19T13:41:59.303Z,9.03
2024-01-19T13:44:27.151Z,9.50
2024-01-19T13:46:54.710Z,9.70
2024-01-19T13:49:22.275Z,11.10
2024-01-19T13:51:49.921Z,8.97
2024-01-19T13:54:17.280Z,7.10
2024-01-19T13:56:44.606Z,12.07
2024-01-19T13:59:12.070Z,15.30
2024-01-19T14:01:39.708Z,14.27
2024-01-19T14:04:11.606Z,9.93
2024-01-19T14:06:39.049Z,9.83
2024-01-19T14:09:06.593Z,13.33
2024-01-19T14:11:34.763Z,7.63
2024-01-19T14:14:03.349Z,14.47
2024-01-19T14:16:31.032Z,11.83
2024-01-19T14:18:58.955Z,12.37
2024-01-19T14:21:26.511Z,11.07
2024-01-19T14:23:53.946Z,16.80
2024-01-19T14:26:21.880Z,7.53
2024-01-19T14:28:49.367Z,10.33
2024-01-19T14:31:17.529Z,13.10
2024-01-19T14:33:45.613Z,12.70
2024-01-19T14:36:13.214Z,10.13
2024-01-19T14:38:40.625Z,9.57
2024-01-19T14:41:08.226Z,7.13
2024-01-19T14:43:35.890Z,11.50
2024-01-19T14:46:03.930Z,11.43
2024-01-19T14:48:31.438Z,9.50
2024-01-19T14:50:59.060Z,11.70
2024-01-19T14:53:27.918Z,9.73
2024-01-19T14:55:55.873Z,13.27
2024-01-19T14:58:23.712Z,11.33
2024-01-19T15:00:51.175Z,11.60
2024-01-19T15:03:18.622Z,11.43
2024-01-19T15:05:45.986Z,11.97
2024-01-19T15:08:13.470Z,13.90
2024-01-19T15:10:40.956Z,11.93
2024-01-19T15:13:09.889Z,10.43
2024-01-19T15:15:38.509Z,10.60
2024-01-19T15:18:07.465Z,13.43
2024-01-19T15:20:34.838Z,19.70
2024-01-19T15:23:04.025Z,16.83
2024-01-19T15:25:31.455Z,13.03
2024-01-19T15:27:58.958Z,12.97
2024-01-19T15:30:33.388Z,9.93
2024-01-19T15:33:08.534Z,11.87
2024-01-19T15:35:35.930Z,10.80
2024-01-19T15:38:03.370Z,12.90
2024-01-19T15:40:30.696Z,14.97
2024-01-19T15:42:58.069Z,14.60
2024-01-19T15:45:27.724Z,12.60
2024-01-19T15:47:56.933Z,11.83
2024-01-19T15:50:25.143Z,22.43
2024-01-19T15:52:56.004Z,14.33
2024-01-19T15:55:24.757Z,14.57
2024-01-19T15:57:52.168Z,13.83
2024-01-19T16:00:20.020Z,14.73
2024-01-19T16:02:47.378Z,21.90
2024-01-19T16:05:16.330Z,14.03
2024-01-19T16:07:44.003Z,12.17
2024-01-19T16:10:11.635Z,16.27
2024-01-19T16:12:39.122Z,18.03
2024-01-19T16:15:07.159Z,16.07
2024-01-19T16:17:39.174Z,12.10
2024-01-19T16:20:09.877Z,15.60
2024-01-19T16:22:37.410Z,13.83
2024-01-19T16:25:07.914Z,12.03
2024-01-19T16:27:36.450Z,14.20
2024-01-19T16:30:05.032Z,18.10
2024-01-19T16:32:32.481Z,16.67
2024-01-19T16:35:00.079Z,19.77
2024-01-19T16:37:27.678Z,11.33
2024-01-19T16:39:55.073Z,18.93
2024-01-19T16:42:22.385Z,18.47
2024-01-19T16:44:49.737Z,17.60
2024-01-19T16:47:17.268Z,16.23
2024-01-19T16:49:44.699Z,14.00
2024-01-19T16:52:13.380Z,17.83
2024-01-19T16:54:44.679Z,22.23
2024-01-19T16:57:12.663Z,17.63
2024-01-19T16:59:40.170Z,19.37
2024-01-19T17:02:07.627Z,19.60
2024-01-19T17:04:38.282Z,17.37
2024-01-19T17:07:05.818Z,17.10
2024-01-19T17:09:35.854Z,15.87
2024-01-19T17:12:03.495Z,16.70
2024-01-19T17:14:34.562Z,21.47
2024-01-19T17:17:01.920Z,21.43
2024-01-19T17:19:29.908Z,23.27
2024-01-19T17:21:57.369Z,22.67
2024-01-19T17:24:25.411Z,20.97
2024-01-19T17:26:53.173Z,21.40
2024-01-19T17:29:21.025Z,19.90
2024-01-19T17:31:48.759Z,21.67
2024-01-19T17:34:16.205Z,23.23
2024-01-19T17:36:43.728Z,19.67
2024-01-19T17:39:11.281Z,22.20
2024-01-19T17:41:42.990Z,22.40
2024-01-19T17:44:11.015Z,27.37
2024-01-19T17:46:38.638Z,23.63
2024-01-19T17:49:06.175Z,28.20
2024-01-19T17:51:33.737Z,24.20
2024-01-19T17:54:01.215Z,22.93
2024-01-19T17:56:28.736Z,24.97
2024-01-19T17:58:56.231Z,28.43
2024-01-19T18:01:24.060Z,23.60
2024-01-19T18:03:51.663Z,23.73
2024-01-19T18:06:21.681Z,25.40
2024-01-19T18:08:51.174Z,24.27
2024-01-19T18:11:18.784Z,28.10
2024-01-19T18:13:46.325Z,26.80
2024-01-19T18:16:13.796Z,19.70
2024-01-19T18:18:41.415Z,19.47
2024-01-19T18:21:09.387Z,25.20
2024-01-19T18:23:36.744Z,23.97
2024-01-19T18:26:04.812Z,24.17
2024-01-19T18:28:32.426Z,22.23
2024-01-19T18:31:00.361Z,27.57
2024-01-19T18:33:27.991Z,20.93
2024-01-19T18:35:55.606Z,23.83
2024-01-19T18:38:23.015Z,20.37
2024-01-19T18:40:50.428Z,19.80
2024-01-19T18:43:17.846Z,21.40
2024-01-19T18:45:45.226Z,22.90
2024-01-19T18:48:12.766Z,20.87
2024-01-19T18:50:40.284Z,21.40
2024-01-19T18:53:09.289Z,15.07
2024-01-19T18:55:37.070Z,15.70
2024-01-19T18:58:07.503Z,24.80
2024-01-19T19:00:37.140Z,19.43
2024-01-19T19:03:06.219Z,20.43
2024-01-19T19:05:36.471Z,24.07
2024-01-19T19:08:07.753Z,17.47
2024-01-19T19:10:37.751Z,18.47
2024-01-19T19:13:07.319Z,19.07
2024-01-19T19:15:37.517Z,11.20
2024-01-19T19:18:05.819Z,17.40
2024-01-19T19:20:33.616Z,26.33
2024-01-19T19:23:02.547Z,19.73
2024-01-19T19:25:30.028Z,20.80
2024-01-19T19:27:57.897Z,20.80
2024-01-19T19:30:26.588Z,21.57
2024-01-19T19:32:54.694Z,25.43
2024-01-19T19:35:22.135Z,18.60
2024-01-19T19:37:49.640Z,19.80
2024-01-19T19:40:17.161Z,23.67
2024-01-19T19:42:44.583Z,21.17
2024-01-19T19:45:14.620Z,17.97
2024-01-19T19:47:42.490Z,18.40
2024-01-19T19:50:11.352Z,14.47
2024-01-19T19:52:39.884Z,23.67
2024-01-19T19:55:07.881Z,20.33
2024-01-19T19:57:35.264Z,23.03
2024-01-19T20:00:02.834Z,23.23
2024-01-19T20:02:30.192Z,22.63
2024-01-19T20:04:57.559Z,18.60
2024-01-19T20:07:24.958Z,23.43
2024-01-19T20:09:52.635Z,22.47
2024-01-19T20:12:20.131Z,20.57
2024-01-19T20:14:47.974Z,17.53
2024-01-19T20:17:15.685Z,14.20
2024-01-19T20:19:48.038Z,26.23
2024-01-19T20:22:15.529Z,18.97
2024-01-19T20:24:43.253Z,22.83
2024-01-19T20:27:12.674Z,22.00
2024-01-19T20:29:42.905Z,24.80
2024-01-19T20:32:10.959Z,25.00
2024-01-19T20:34:40.508Z,26.03
2024-01-19T20:37:08.480Z,17.20
2024-01-19T20:39:36.139Z,17.23
2024-01-19T20:42:04.275Z,21.23
2024-01-19T20:44:31.669Z,20.00
2024-01-19T20:46:59.171Z,26.77
2024-01-19T20:49:27.022Z,23.53
2024-01-19T20:51:54.434Z,18.47
2024-01-19T20:54:25.796Z,16.17
2024-01-19T20:56:54.126Z,21.47
2024-01-19T20:59:24.097Z,18.37
2024-01-19T21:01:51.666Z,20.30
2024-01-19T21:04:19.311Z,13.50
2024-01-19T21:06:47.005Z,28.93
2024-01-19T21:09:14.573Z,15.50
2024-01-19T21:11:42.404Z,19.63
2024-01-19T21:14:10.855Z,19.93
2024-01-19T21:16:38.592Z,21.20
2024-01-19T21:19:08.931Z,21.47
2024-01-19T21:21:37.777Z,19.07
2024-01-19T21:24:05.845Z,17.43
2024-01-19T21:26:34.613Z,19.47
2024-01-19T21:29:03.414Z,19.13
2024-01-19T21:31:30.915Z,20.93
2024-01-19T21:33:59.357Z,20.03
2024-01-19T21:36:26.868Z,22.23
2024-01-19T21:38:54.431Z,17.47
2024-01-19T21:41:22.387Z,12.63
2024-01-19T21:43:49.849Z,16.37
2024-01-19T21:46:17.411Z,17.83
2024-01-19T21:48:44.926Z,20.23
2024-01-19T21:51:12.454Z,20.33
2024-01-19T21:53:43.339Z,14.33
2024-01-19T21:56:14.452Z,14.83
2024-01-19T21:58:41.969Z,17.17
2024-01-19T22:01:17.377Z,19.70
2024-01-19T22:03:47.230Z,15.00
2024-01-19T22:06:14.801Z,15.50
2024-01-19T22:08:42.468Z,16.30
2024-01-19T22:11:10.339Z,13.30
2024-01-19T22:13:37.851Z,17.43
2024-01-19T22:16:06.173Z,17.23
2024-01-19T22:18:38.427Z,14.90
2024-01-19T22:21:07.021Z,19.10
2024-01-19T22:23:40.020Z,15.37
2024-01-19T22:26:10.507Z,13.93
2024-01-19T22:28:38.027Z,8.73
2024-01-19T22:31:07.517Z,18.97
2024-01-19T22:33:38.175Z,18.00
2024-01-19T22:36:15.066Z,16.03
2024-01-19T22:38:46.434Z,16.50
2024-01-19T22:41:17.377Z,18.00
2024-01-19T22:43:45.159Z,13.33
2024-01-19T22:46:12.891Z,18.63
2024-01-19T22:48:40.439Z,16.87
2024-01-19T22:51:08.367Z,18.07
2024-01-19T22:53:36.017Z,13.70
2024-01-19T22:56:11.129Z,18.17
2024-01-19T22:58:39.524Z,17.20
2024-01-19T23:01:10.512Z,15.00
2024-01-19T23:03:38.289Z,12.33
2024-01-19T23:06:06.246Z,18.30
2024-01-19T23:08:33.890Z,14.67
2024-01-19T23:11:01.455Z,12.40
2024-01-19T23:13:28.976Z,17.73
2024-01-19T23:15:56.518Z,20.40
2024-01-19T23:18:24.486Z,13.10
2024-01-19T23:20:52.348Z,15.43
2024-01-19T23:23:20.562Z,16.47
2024-01-19T23:25:48.059Z,19.63
2024-01-19T23:28:15.804Z,17.63
2024-01-19T23:30:43.297Z,16.40
2024-01-19T23:33:11.300Z,19.07
2024-01-19T23:35:38.875Z,15.87
2024-01-19T23:38:06.928Z,20.87
2024-01-19T23:40:34.373Z,13.33
2024-01-19T23:43:01.952Z,17.07
2024-01-19T23:45:29.456Z,15.57
2024-01-19T23:47:58.038Z,18.40
2024-01-19T23:50:26.433Z,20.60
2024-01-19T23:52:53.817Z,16.90
2024-01-19T23:55:21.417Z,19.27
2024-01-19T23:57:48.866Z,14.17
